Time;durP1;ratioP1;P1;durP2;ratioP2;P2;SDS_P1;SDS_P2;PMS_P1;PMS_P2;Temp;Humidity;BMP_temperature;BMP_pressure;BME280_temperature;BME280_humidity;BME280_pressure;Samples;Min_cycle;Max_cycle;Signal;HPM_P1;HPM_P2
2023/04/04 00:00:13;;;;;;;49.10;14.07;;;9.60;72.10;;;;;;5044535;28;20029;-56
2023/04/04 00:02:39;;;;;;;48.60;13.23;;;9.60;72.10;;;;;;5076416;28;20041;-56
2023/04/04 00:05:05;;;;;;;49.85;13.02;;;9.60;72.20;;;;;;5042869;28;20036;-56
2023/04/04 00:07:31;;;;;;;43.55;12.45;;;9.60;72.10;;;;;;5059218;28;20044;-56
2023/04/04 00:09:56;;;;;;;54.90;13.00;;;9.60;72.20;;;;;;5076238;28;20030;-56
2023/04/04 00:12:23;;;;;;;48.03;13.57;;;9.50;72.10;;;;;;5076221;28;20120;-56
2023/04/04 00:14:48;;;;;;;53.40;13.35;;;9.50;72.20;;;;;;5059296;28;20034;-56
2023/04/04 00:17:14;;;;;;;42.83;11.52;;;9.50;72.20;;;;;;5042493;28;20093;-56
2023/04/04 00:19:40;;;;;;;41.78;12.48;;;9.50;72.30;;;;;;5077475;28;20327;-56
2023/04/04 00:22:06;;;;;;;52.92;12.13;;;9.40;72.10;;;;;;5075973;28;20052;-56
2023/04/04 00:24:32;;;;;;;43.15;11.77;;;9.40;72.90;;;;;;5059170;28;20030;-56
2023/04/04 00:26:58;;;;;;;46.03;11.35;;;9.40;72.90;;;;;;5075902;28;20079;-56
2023/04/04 00:29:23;;;;;;;47.08;11.43;;;9.40;72.00;;;;;;5044060;28;20089;-56
2023/04/04 00:31:49;;;;;;;51.15;13.02;;;9.40;72.20;;;;;;5075993;28;20029;-56
2023/04/04 00:34:15;;;;;;;40.05;12.13;;;9.30;72.20;;;;;;5060851;28;20056;-56
2023/04/04 00:36:40;;;;;;;48.65;12.93;;;9.30;72.10;;;;;;5062804;28;20128;-56
2023/04/04 00:39:06;;;;;;;38.83;10.65;;;9.30;72.20;;;;;;5079636;28;20125;-56
2023/04/04 00:41:31;;;;;;;33.55;11.38;;;9.20;72.30;;;;;;5079507;28;20044;-56
2023/04/04 00:43:57;;;;;;;30.42;10.13;;;9.20;72.20;;;;;;5062786;28;20056;-56
2023/04/04 00:46:24;;;;;;;38.45;11.15;;;9.20;72.00;;;;;;5062667;28;20038;-56
2023/04/04 00:48:50;;;;;;;29.15;10.05;;;9.20;71.90;;;;;;5062711;28;20032;-56
2023/04/04 00:51:15;;;;;;;32.00;10.45;;;9.10;71.90;;;;;;5062604;28;20037;-56
2023/04/04 00:53:43;;;;;;;44.08;10.90;;;9.10;72.30;;;;;;5079286;28;20018;-56
2023/04/04 00:56:08;;;;;;;29.92;9.77;;;9.10;72.30;;;;;;5062174;28;20037;-56
2023/04/04 00:58:34;;;;;;;28.05;8.63;;;9.10;72.30;;;;;;5045892;28;20017;-56
2023/04/04 01:01:01;;;;;;;26.20;8.93;;;9.10;72.10;;;;;;5029308;28;20042;-56
2023/04/04 01:03:26;;;;;;;29.70;9.43;;;9.00;72.70;;;;;;5045801;28;20018;-56
2023/04/04 01:05:53;;;;;;;41.15;10.05;;;9.00;72.20;;;;;;5029061;28;20033;-56
2023/04/04 01:08:21;;;;;;;25.98;8.32;;;9.00;72.30;;;;;;5045478;28;20021;-56
2023/04/04 01:10:47;;;;;;;28.00;9.15;;;9.00;72.20;;;;;;5045572;28;20033;-56
2023/04/04 01:13:13;;;;;;;20.67;7.70;;;9.00;72.30;;;;;;5045567;28;20028;-56
2023/04/04 01:15:40;;;;;;;28.77;8.30;;;9.00;72.40;;;;;;5045596;28;20047;-56
2023/04/04 01:18:05;;;;;;;23.58;7.97;;;8.90;72.30;;;;;;5045526;28;20147;-56
2023/04/04 01:20:31;;;;;;;23.90;8.10;;;8.90;72.40;;;;;;5045476;28;20128;-56
2023/04/04 01:22:57;;;;;;;27.05;7.10;;;8.80;72.20;;;;;;5045499;28;20026;-56
2023/04/04 01:25:29;;;;;;;23.85;7.78;;;8.80;73.00;;;;;;5028534;28;20474;-56
2023/04/04 01:27:55;;;;;;;20.10;7.88;;;8.80;72.30;;;;;;5046438;28;20036;-56
2023/04/04 01:30:20;;;;;;;18.40;6.55;;;8.80;72.30;;;;;;5045167;28;20021;-56
2023/04/04 01:32:58;;;;;;;19.58;7.43;;;8.80;72.40;;;;;;5045266;28;20033;-56
2023/04/04 01:35:38;;;;;;;27.38;8.18;;;8.70;72.30;;;;;;5061676;28;20029;-56
2023/04/04 01:38:17;;;;;;;28.55;8.88;;;8.70;72.40;;;;;;5028970;28;20033;-56
2023/04/04 01:40:47;;;;;;;24.95;8.75;;;8.70;72.60;;;;;;5044990;28;20060;-56
2023/04/04 01:43:12;;;;;;;25.25;9.57;;;8.70;72.60;;;;;;5045711;28;20036;-56
2023/04/04 01:45:38;;;;;;;17.92;8.63;;;8.70;72.60;;;;;;5044394;28;20089;-56
2023/04/04 01:48:04;;;;;;;25.80;9.65;;;8.60;72.50;;;;;;5044924;28;20025;-56
2023/04/04 01:50:30;;;;;;;22.58;9.40;;;8.60;72.40;;;;;;5046117;28;20026;-56
2023/04/04 01:52:55;;;;;;;30.88;11.15;;;8.60;72.30;;;;;;5028373;28;20036;-56
2023/04/04 01:55:21;;;;;;;32.10;11.68;;;8.60;72.50;;;;;;5045927;28;20022;-56
2023/04/04 01:57:47;;;;;;;31.63;13.60;;;8.60;72.70;;;;;;5046031;28;20040;-56
2023/04/04 02:00:14;;;;;;;37.88;13.82;;;8.60;72.80;;;;;;5077772;28;20049;-56
2023/04/04 02:02:40;;;;;;;47.05;15.88;;;8.60;73.00;;;;;;5046119;28;20144;-56
2023/04/04 02:05:06;;;;;;;34.35;14.52;;;8.60;73.10;;;;;;5045904;28;20128;-56
2023/04/04 02:07:31;;;;;;;44.70;15.18;;;8.60;73.20;;;;;;5045919;28;20026;-56
2023/04/04 02:09:57;;;;;;;39.35;16.15;;;8.50;73.00;;;;;;5077668;28;20104;-56
2023/04/04 02:12:23;;;;;;;42.67;15.13;;;8.50;73.00;;;;;;5077435;28;20044;-56
2023/04/04 02:14:48;;;;;;;58.53;17.05;;;8.50;73.10;;;;;;5045745;28;20025;-56
2023/04/04 02:17:14;;;;;;;45.78;16.20;;;8.50;73.10;;;;;;5045770;28;20041;-56
2023/04/04 02:19:39;;;;;;;50.90;16.25;;;8.50;73.20;;;;;;5045578;28;20040;-56
2023/04/04 02:22:05;;;;;;;50.40;16.20;;;8.50;73.20;;;;;;5044929;28;20096;-56
2023/04/04 02:24:31;;;;;;;43.47;16.35;;;8.40;73.10;;;;;;5044248;28;20033;-56
2023/04/04 02:26:56;;;;;;;55.40;16.77;;;8.40;73.30;;;;;;5077326;28;20026;-56
2023/04/04 02:29:22;;;;;;;38.15;14.32;;;8.40;73.10;;;;;;5045624;28;20085;-55
2023/04/04 02:31:47;;;;;;;52.15;17.23;;;8.40;73.20;;;;;;5060719;28;20447;-56
2023/04/04 02:34:13;;;;;;;51.92;17.35;;;8.40;73.90;;;;;;5060747;28;20033;-56
2023/04/04 02:36:39;;;;;;;42.42;15.82;;;8.40;73.30;;;;;;5045620;28;20060;-55
2023/04/04 02:39:04;;;;;;;47.70;15.80;;;8.40;73.40;;;;;;5045298;28;20029;-56
2023/04/04 02:41:30;;;;;;;48.17;15.63;;;8.40;73.50;;;;;;5045352;28;20441;-56
2023/04/04 02:43:56;;;;;;;40.20;15.20;;;8.40;73.60;;;;;;5060367;28;20045;-56
2023/04/04 02:46:21;;;;;;;43.10;15.05;;;8.40;73.60;;;;;;5045064;28;20053;-56
2023/04/04 02:48:47;;;;;;;47.75;15.98;;;8.30;73.60;;;;;;5045294;28;20025;-56
2023/04/04 02:51:13;;;;;;;37.90;14.55;;;8.40;73.60;;;;;;5044986;28;20041;-56
2023/04/04 02:53:38;;;;;;;47.58;15.32;;;8.30;73.60;;;;;;5077226;28;20022;-56
2023/04/04 02:56:04;;;;;;;36.97;16.25;;;8.30;73.70;;;;;;5076940;28;20041;-56
2023/04/04 02:58:33;;;;;;;39.90;15.02;;;8.30;73.80;;;;;;5043573;28;20089;-56
2023/04/04 03:00:58;;;;;;;41.28;14.40;;;8.30;73.90;;;;;;5060406;28;20159;-55
2023/04/04 03:03:24;;;;;;;46.05;14.95;;;8.30;73.90;;;;;;5060379;28;20113;-56
2023/04/04 03:05:50;;;;;;;43.58;15.55;;;8.30;73.90;;;;;;5076759;28;20029;-56
2023/04/04 03:08:16;;;;;;;43.75;16.05;;;8.20;73.90;;;;;;5059929;28;20098;-56
2023/04/04 03:10:41;;;;;;;46.08;16.52;;;8.30;73.90;;;;;;5076727;28;20125;-56
2023/04/04 03:13:07;;;;;;;36.92;15.30;;;8.30;73.90;;;;;;5076570;28;20021;-56
2023/04/04 03:15:33;;;;;;;45.63;15.02;;;8.20;74.00;;;;;;5060231;28;20159;-55
2023/04/04 03:17:59;;;;;;;38.10;14.00;;;8.20;73.90;;;;;;5059646;28;20025;-56
2023/04/04 03:20:25;;;;;;;37.42;14.30;;;8.20;73.80;;;;;;5076754;28;20021;-56
2023/04/04 03:22:51;;;;;;;34.13;13.63;;;8.20;73.70;;;;;;5059990;28;20454;-56
2023/04/04 03:25:16;;;;;;;36.65;13.75;;;8.20;73.70;;;;;;5059858;28;20022;-56
2023/04/04 03:27:42;;;;;;;30.23;12.75;;;8.20;73.60;;;;;;5059706;28;20025;-56
2023/04/04 03:30:08;;;;;;;32.33;13.85;;;8.10;73.60;;;;;;5059985;28;20022;-56
2023/04/04 03:32:35;;;;;;;38.53;14.13;;;8.10;73.60;;;;;;5044647;28;20053;-55
2023/04/04 03:35:00;;;;;;;48.92;18.30;;;8.10;73.40;;;;;;5042934;28;20089;-56
2023/04/04 03:37:28;;;;;;;56.60;18.90;;;8.10;73.50;;;;;;5076274;28;20044;-56
2023/04/04 03:39:53;;;;;;;45.03;16.55;;;8.10;73.40;;;;;;5076204;28;20088;-55
2023/04/04 03:42:19;;;;;;;55.42;18.48;;;8.10;73.40;;;;;;5044468;28;20041;-56
2023/04/04 03:44:45;;;;;;;44.63;15.82;;;8.10;73.30;;;;;;5076370;28;20108;-56
2023/04/04 03:47:10;;;;;;;49.85;15.07;;;8.00;73.20;;;;;;5044387;28;20112;-56
2023/04/04 03:49:36;;;;;;;45.90;17.30;;;8.00;73.30;;;;;;5044346;28;20098;-56
2023/04/04 03:52:02;;;;;;;55.05;18.13;;;8.00;73.20;;;;;;5059498;28;20099;-56
2023/04/04 03:54:28;;;;;;;50.65;17.60;;;8.00;73.30;;;;;;5076481;28;20037;-55
2023/04/04 03:56:53;;;;;;;54.03;17.63;;;8.00;73.20;;;;;;5059625;28;20038;-56
2023/04/04 03:59:20;;;;;;;53.38;16.88;;;8.00;73.30;;;;;;5059655;28;20021;-55
2023/04/04 04:01:47;;;;;;;55.17;17.17;;;8.00;73.20;;;;;;5059349;28;20103;-55
2023/04/04 04:04:12;;;;;;;53.60;16.83;;;8.00;73.20;;;;;;5044400;28;20037;-56
2023/04/04 04:06:38;;;;;;;54.10;15.25;;;8.00;73.10;;;;;;5044448;28;20077;-56
2023/04/04 04:09:03;;;;;;;51.05;15.00;;;8.00;73.00;;;;;;5045800;28;20514;-56
2023/04/04 04:11:29;;;;;;;56.10;14.02;;;7.90;73.00;;;;;;5046794;28;20116;-56
2023/04/04 04:13:55;;;;;;;39.97;13.88;;;7.90;73.00;;;;;;5080062;28;20056;-56
2023/04/04 04:16:21;;;;;;;47.67;13.45;;;7.90;72.80;;;;;;5063122;28;20061;-56
2023/04/04 04:18:47;;;;;;;37.45;13.10;;;7.90;72.70;;;;;;5079857;28;20021;-56
2023/04/04 04:21:12;;;;;;;41.40;12.75;;;7.90;73.30;;;;;;5063007;28;20040;-55
2023/04/04 04:23:38;;;;;;;32.53;11.57;;;7.80;72.60;;;;;;5079946;28;20021;-56
2023/04/04 04:26:04;;;;;;;35.95;12.40;;;7.80;72.50;;;;;;5048017;28;20033;-56
2023/04/04 04:28:29;;;;;;;26.88;10.85;;;7.90;72.60;;;;;;5062920;28;20036;-56
2023/04/04 04:30:55;;;;;;;33.60;10.75;;;7.80;72.60;;;;;;5079700;28;20063;-56
2023/04/04 04:33:28;;;;;;;31.63;10.98;;;7.80;72.60;;;;;;5079614;28;20163;-56
2023/04/04 04:35:56;;;;;;;33.40;11.38;;;7.80;72.60;;;;;;5079179;28;20044;-56
2023/04/04 04:38:22;;;;;;;32.70;10.25;;;7.80;72.60;;;;;;5079394;28;20034;-55
2023/04/04 04:40:47;;;;;;;31.80;10.25;;;7.80;72.60;;;;;;5079443;28;20040;-56
2023/04/04 04:43:13;;;;;;;30.45;9.15;;;7.70;72.60;;;;;;5047624;28;20025;-56
2023/04/04 04:45:41;;;;;;;28.05;9.43;;;7.70;72.50;;;;;;5047485;28;20033;-56
2023/04/04 04:48:06;;;;;;;22.13;8.98;;;7.70;72.60;;;;;;5045891;28;20025;-56
2023/04/04 04:50:32;;;;;;;30.92;10.55;;;7.70;72.60;;;;;;5046043;28;21014;-56
2023/04/04 04:52:57;;;;;;;28.42;9.50;;;7.80;72.70;;;;;;5079449;28;20065;-56
2023/04/04 04:55:23;;;;;;;30.50;9.40;;;7.70;72.70;;;;;;5079046;28;20124;-56
2023/04/04 04:57:49;;;;;;;24.00;8.80;;;7.70;72.60;;;;;;5047298;28;20064;-56
2023/04/04 05:00:16;;;;;;;22.52;8.25;;;7.70;72.70;;;;;;5062348;28;20362;-56
2023/04/04 05:02:41;;;;;;;18.63;7.88;;;7.70;72.90;;;;;;5045881;28;20048;-56
2023/04/04 05:05:07;;;;;;;22.67;8.68;;;7.70;72.90;;;;;;5045892;28;20026;-55
2023/04/04 05:07:32;;;;;;;24.08;7.60;;;7.60;72.90;;;;;;5045544;28;20092;-55
2023/04/04 05:09:58;;;;;;;24.77;8.27;;;7.60;72.90;;;;;;5045748;28;20022;-56
2023/04/04 05:12:24;;;;;;;19.90;9.07;;;7.60;73.00;;;;;;5047201;28;20036;-56
2023/04/04 05:14:49;;;;;;;20.95;7.85;;;7.60;73.00;;;;;;5079097;28;20025;-56
2023/04/04 05:17:15;;;;;;;19.02;6.85;;;7.60;73.10;;;;;;5047133;28;20423;-56
2023/04/04 05:19:40;;;;;;;25.05;7.40;;;7.60;73.20;;;;;;5044856;28;20048;-56
2023/04/04 05:22:07;;;;;;;21.30;7.47;;;7.50;73.10;;;;;;5044747;28;20021;-56
2023/04/04 05:24:32;;;;;;;22.35;7.43;;;7.50;73.10;;;;;;5045597;28;20120;-56
2023/04/04 05:26:58;;;;;;;21.00;6.72;;;7.50;73.10;;;;;;5028632;28;20196;-56
2023/04/04 05:29:23;;;;;;;22.25;6.63;;;7.50;73.20;;;;;;5045128;28;20033;-56
2023/04/04 05:31:49;;;;;;;18.48;6.70;;;7.50;73.30;;;;;;5046796;28;20041;-55
2023/04/04 05:34:14;;;;;;;22.73;7.05;;;7.50;73.40;;;;;;5046666;28;20033;-55
2023/04/04 05:36:40;;;;;;;21.95;7.18;;;7.50;73.40;;;;;;5045353;28;20022;-55
2023/04/04 05:39:06;;;;;;;20.50;6.97;;;7.50;73.30;;;;;;5045100;28;20465;-56
2023/04/04 05:41:32;;;;;;;14.38;6.18;;;7.40;73.30;;;;;;5045109;28;20026;-56
2023/04/04 05:43:58;;;;;;;19.38;6.43;;;7.40;73.30;;;;;;5045286;28;20048;-55
2023/04/04 05:46:23;;;;;;;21.38;5.97;;;7.40;73.30;;;;;;5044744;28;20036;-55
2023/04/04 05:48:49;;;;;;;16.25;6.68;;;7.40;73.50;;;;;;5046492;28;20033;-56
2023/04/04 05:51:15;;;;;;;21.13;6.95;;;7.40;73.40;;;;;;5061460;28;20413;-56
2023/04/04 05:53:41;;;;;;;15.63;5.82;;;7.40;74.00;;;;;;5044890;28;20029;-56
2023/04/04 05:56:07;;;;;;;12.05;5.00;;;7.40;73.30;;;;;;5028163;28;20038;-55
2023/04/04 05:58:32;;;;;;;17.15;5.88;;;7.40;73.30;;;;;;5045083;28;20037;-56
2023/04/04 06:00:58;;;;;;;21.92;5.93;;;7.40;73.30;;;;;;5044342;28;20044;-56
2023/04/04 06:03:24;;;;;;;13.18;5.63;;;7.40;73.30;;;;;;5028360;28;20048;-55
2023/04/04 06:05:51;;;;;;;14.85;5.18;;;7.30;73.30;;;;;;5045997;28;20355;-55
2023/04/04 06:08:17;;;;;;;11.27;4.57;;;7.30;73.10;;;;;;5011809;28;20374;-55
2023/04/04 06:10:42;;;;;;;11.20;5.65;;;7.30;73.10;;;;;;5029219;28;20029;-56
2023/04/04 06:13:08;;;;;;;15.55;5.43;;;7.30;73.10;;;;;;5044475;28;20104;-56
2023/04/04 06:15:33;;;;;;;15.95;5.13;;;7.30;73.10;;;;;;5024510;28;20034;-55
2023/04/04 06:17:59;;;;;;;12.40;5.00;;;7.30;73.10;;;;;;5041070;28;20026;-55
2023/04/04 06:20:25;;;;;;;10.18;5.07;;;7.30;73.10;;;;;;5072862;28;20056;-55
2023/04/04 06:22:50;;;;;;;16.08;4.65;;;7.30;73.10;;;;;;5045962;28;20036;-56
2023/04/04 06:25:16;;;;;;;10.30;4.50;;;7.20;73.00;;;;;;5044622;28;20091;-56
2023/04/04 06:27:42;;;;;;;11.65;5.18;;;7.20;73.00;;;;;;5028104;28;20029;-55
2023/04/04 06:30:08;;;;;;;11.50;4.30;;;7.20;73.50;;;;;;5044280;28;20022;-56
2023/04/04 06:32:34;;;;;;;10.02;4.35;;;7.20;72.80;;;;;;5011287;28;20033;-55
2023/04/04 06:34:59;;;;;;;9.57;4.78;;;7.30;72.70;;;;;;5045926;28;20430;-55
2023/04/04 06:37:25;;;;;;;15.50;4.90;;;7.20;72.60;;;;;;5027878;28;20143;-55
2023/04/04 06:39:51;;;;;;;9.32;4.50;;;7.30;72.60;;;;;;5045414;28;20094;-55
2023/04/04 06:42:16;;;;;;;10.82;4.25;;;7.30;72.70;;;;;;5044215;28;20037;-55
2023/04/04 06:44:42;;;;;;;11.75;4.18;;;7.30;72.60;;;;;;5044050;28;20025;-56
2023/04/04 06:47:08;;;;;;;15.30;3.88;;;7.30;72.70;;;;;;5027329;28;20037;-56
2023/04/04 06:49:33;;;;;;;6.53;3.97;;;7.20;72.40;;;;;;5043825;28;20176;-55
2023/04/04 06:51:59;;;;;;;11.38;3.80;;;7.30;72.50;;;;;;5043436;28;20033;-55
2023/04/04 06:54:25;;;;;;;7.18;3.85;;;7.30;72.40;;;;;;5027517;28;20067;-56
2023/04/04 06:56:51;;;;;;;11.00;4.43;;;7.30;72.40;;;;;;5027330;28;20040;-56
2023/04/04 06:59:17;;;;;;;12.77;3.97;;;7.30;72.40;;;;;;5027180;28;20373;-55
2023/04/04 07:01:43;;;;;;;19.70;4.40;;;7.30;72.30;;;;;;5043791;28;20048;-56
2023/04/04 07:04:08;;;;;;;11.98;4.38;;;7.30;72.30;;;;;;5042801;28;20029;-55
2023/04/04 07:06:34;;;;;;;13.13;4.07;;;7.30;72.30;;;;;;5043502;28;20033;-56
2023/04/04 07:09:00;;;;;;;19.77;4.53;;;7.30;72.40;;;;;;5044714;28;20029;-56
2023/04/04 07:11:25;;;;;;;12.45;4.40;;;7.30;72.40;;;;;;5044860;28;20453;-56
2023/04/04 07:13:51;;;;;;;22.77;4.88;;;7.30;73.00;;;;;;5042743;28;20080;-56
2023/04/04 07:16:17;;;;;;;20.50;4.57;;;7.30;72.30;;;;;;5043291;28;20032;-56
2023/04/04 07:18:43;;;;;;;32.33;5.55;;;7.40;72.50;;;;;;5010709;28;20230;-55
2023/04/04 07:21:08;;;;;;;49.25;8.38;;;7.40;72.80;;;;;;5026886;28;20030;-55
2023/04/04 07:23:34;;;;;;;43.47;8.18;;;7.40;72.40;;;;;;5043339;28;20057;-56
2023/04/04 07:26:00;;;;;;;97.75;14.32;;;7.40;72.40;;;;;;5042905;28;20037;-56
2023/04/04 07:28:26;;;;;;;48.20;9.30;;;7.40;72.40;;;;;;5043314;28;20021;-56
2023/04/04 07:30:51;;;;;;;62.40;9.95;;;7.50;72.30;;;;;;5044736;28;20035;-56
2023/04/04 07:33:17;;;;;;;87.00;12.35;;;7.40;72.30;;;;;;5043274;28;20092;-56
2023/04/04 07:35:42;;;;;;;84.55;14.40;;;7.50;72.30;;;;;;5038094;28;20563;-56
2023/04/04 07:38:09;;;;;;;70.75;12.25;;;7.50;72.20;;;;;;5043078;28;20264;-56
2023/04/04 07:40:35;;;;;;;66.30;10.88;;;7.50;72.30;;;;;;5044213;28;20084;-56
2023/04/04 07:43:00;;;;;;;198.98;26.55;;;7.50;72.30;;;;;;5042953;28;20025;-56
2023/04/04 07:45:26;;;;;;;72.80;13.55;;;7.30;72.10;;;;;;5030167;28;20112;-56
2023/04/04 07:47:51;;;;;;;110.60;14.15;;;7.50;72.20;;;;;;5029704;28;20412;-56
2023/04/04 07:50:18;;;;;;;112.78;14.65;;;7.50;72.10;;;;;;5046937;28;20021;-56
2023/04/04 07:52:51;;;;;;;67.60;12.15;;;7.60;72.10;;;;;;5046926;28;20052;-56
2023/04/04 07:55:17;;;;;;;95.18;13.75;;;7.60;72.10;;;;;;5030897;28;20115;-56
2023/04/04 07:57:43;;;;;;;95.50;13.70;;;7.60;72.20;;;;;;5047775;28;20026;-55
2023/04/04 08:00:09;;;;;;;106.13;16.27;;;7.60;72.20;;;;;;5045927;28;20029;-56
2023/04/04 08:02:36;;;;;;;101.28;14.43;;;7.60;72.10;;;;;;5060167;28;20060;-56
2023/04/04 08:05:01;;;;;;;109.30;13.55;;;7.60;72.10;;;;;;5047578;28;20117;-56
2023/04/04 08:07:27;;;;;;;85.15;13.50;;;7.60;72.00;;;;;;5048115;28;20037;-56
2023/04/04 08:09:53;;;;;;;90.95;12.93;;;7.60;72.10;;;;;;5046667;28;20029;-56
2023/04/04 08:12:18;;;;;;;89.53;11.95;;;7.70;72.00;;;;;;5048154;28;20041;-55
2023/04/04 08:14:44;;;;;;;68.55;11.32;;;7.60;72.00;;;;;;5044805;28;20033;-56
2023/04/04 08:17:11;;;;;;;97.88;12.73;;;7.60;72.00;;;;;;5046153;28;20048;-56
2023/04/04 08:19:36;;;;;;;68.57;10.80;;;7.60;72.10;;;;;;5026365;28;20033;-56
2023/04/04 08:22:02;;;;;;;113.55;15.65;;;7.70;72.00;;;;;;5059693;28;20061;-55
2023/04/04 08:24:27;;;;;;;101.70;13.95;;;7.70;71.80;;;;;;5026506;28;20030;-56
2023/04/04 08:26:53;;;;;;;107.25;13.52;;;7.70;71.90;;;;;;5059617;28;20034;-56
2023/04/04 08:29:19;;;;;;;83.38;12.05;;;7.70;71.80;;;;;;5043233;28;20103;-55
2023/04/04 08:31:44;;;;;;;84.20;12.50;;;7.70;72.00;;;;;;5059682;28;20028;-56
2023/04/04 08:34:10;;;;;;;65.00;11.15;;;7.70;72.00;;;;;;5068995;28;20052;-56
2023/04/04 08:36:36;;;;;;;75.55;11.77;;;7.70;71.90;;;;;;5029813;28;20034;-56
2023/04/04 08:39:02;;;;;;;93.07;12.05;;;7.70;71.60;;;;;;5046047;28;20025;-56
2023/04/04 08:41:28;;;;;;;84.60;11.45;;;7.70;71.70;;;;;;5047314;28;20025;-56
2023/04/04 08:43:55;;;;;;;69.53;10.15;;;7.70;71.90;;;;;;5046150;28;20036;-56
2023/04/04 08:46:22;;;;;;;96.68;12.18;;;7.70;71.90;;;;;;5062404;28;20038;-56
2023/04/04 08:48:48;;;;;;;50.53;10.20;;;7.70;71.90;;;;;;5048218;28;20041;-56
2023/04/04 08:51:13;;;;;;;52.10;10.40;;;7.80;72.00;;;;;;5063097;28;20030;-55
2023/04/04 08:53:39;;;;;;;70.60;10.65;;;7.70;71.60;;;;;;5032060;28;20033;-56
2023/04/04 08:56:05;;;;;;;83.65;10.70;;;7.80;71.80;;;;;;5031661;28;20051;-56
2023/04/04 08:58:30;;;;;;;52.63;9.63;;;7.80;71.60;;;;;;5047568;28;20029;-56
2023/04/04 09:00:56;;;;;;;47.42;9.75;;;7.80;71.60;;;;;;5029955;28;20044;-56
2023/04/04 09:03:21;;;;;;;60.53;9.02;;;7.80;71.50;;;;;;5029300;28;20021;-55
2023/04/04 09:05:47;;;;;;;56.67;10.82;;;7.80;71.70;;;;;;5047061;28;20087;-56
2023/04/04 09:08:13;;;;;;;59.40;10.30;;;7.80;71.60;;;;;;5029706;28;20087;-56
2023/04/04 09:10:40;;;;;;;47.50;9.73;;;7.80;71.50;;;;;;5029151;28;20034;-56
2023/04/04 09:13:06;;;;;;;55.20;10.73;;;7.80;71.50;;;;;;5013320;28;20040;-56
2023/04/04 09:15:31;;;;;;;47.85;8.65;;;7.80;71.50;;;;;;5028956;28;20013;-56
2023/04/04 09:17:57;;;;;;;41.70;8.77;;;7.80;71.30;;;;;;5029141;28;20026;-56
2023/04/04 09:20:36;;;;;;;68.22;9.32;;;7.80;71.40;;;;;;5045325;28;20040;-56
2023/04/04 09:23:12;;;;;;;53.50;9.05;;;7.80;72.10;;;;;;5029599;28;20389;-56
2023/04/04 09:25:41;;;;;;;;;;;7.80;71.50;;;;;;5047230;28;20037;-56
2023/04/04 09:28:07;;;;;;;94.57;11.85;;;7.80;71.50;;;;;;5046379;28;20332;-56
2023/04/04 09:30:33;;;;;;;55.38;8.35;;;7.80;71.50;;;;;;5046534;28;20034;-56
2023/04/04 09:33:09;;;;;;;51.08;7.93;;;7.80;71.60;;;;;;5045130;28;20103;-56
2023/04/04 09:35:38;;;;;;;;;;;7.80;71.30;;;;;;5045714;28;20033;-55
2023/04/04 09:38:04;;;;;;;43.92;7.68;;;7.90;71.40;;;;;;5078639;28;19920;-56
2023/04/04 09:40:30;;;;;;;33.92;7.22;;;7.80;71.40;;;;;;5045121;28;20040;-56
2023/04/04 09:42:59;;;;;;;63.33;8.77;;;7.80;71.40;;;;;;5046044;28;20076;-55
2023/04/04 09:45:25;;;;;;;38.63;7.45;;;7.80;71.40;;;;;;5045026;28;20036;-55
2023/04/04 09:47:51;;;;;;;44.40;7.07;;;7.80;71.40;;;;;;5045919;28;20030;-56
2023/04/04 09:50:24;;;;;;;42.45;7.43;;;7.80;71.30;;;;;;5026790;28;20045;-56
2023/04/04 09:52:50;;;;;;;50.08;7.43;;;7.90;71.30;;;;;;5056280;28;20108;-56
2023/04/04 09:55:16;;;;;;;35.90;6.82;;;7.90;71.30;;;;;;5027310;28;20056;-56
2023/04/04 09:57:42;;;;;;;64.45;9.48;;;7.90;71.20;;;;;;5046058;28;20113;-56
2023/04/04 10:00:08;;;;;;;43.30;7.53;;;7.90;71.30;;;;;;5043450;28;20536;-56
2023/04/04 10:02:36;;;;;;;58.10;8.93;;;7.90;71.30;;;;;;5034804;28;20041;-56
2023/04/04 10:05:02;;;;;;;68.75;9.75;;;7.90;71.50;;;;;;5031101;28;20030;-55
2023/04/04 10:07:28;;;;;;;76.35;9.75;;;7.90;71.50;;;;;;5012793;28;20029;-57
2023/04/04 10:09:54;;;;;;;57.30;8.93;;;8.00;71.90;;;;;;5030386;28;20022;-56
2023/04/04 10:12:23;;;;;;;152.00;17.75;;;7.90;71.60;;;;;;5030085;28;20267;-56
2023/04/04 10:14:55;;;;;;;77.25;9.77;;;8.00;71.60;;;;;;5031425;28;20025;-56
2023/04/04 10:17:21;;;;;;;60.05;9.25;;;8.00;71.40;;;;;;5038900;28;20047;-57
2023/04/04 10:19:46;;;;;;;65.90;9.15;;;8.00;71.30;;;;;;5014670;28;20090;-56
2023/04/04 10:22:12;;;;;;;79.47;10.13;;;8.10;71.20;;;;;;5031539;28;20041;-56
2023/04/04 10:24:38;;;;;;;65.45;10.80;;;8.10;71.20;;;;;;5014820;28;20064;-57
2023/04/04 10:27:03;;;;;;;66.00;9.55;;;8.00;71.00;;;;;;5014819;28;20154;-57
2023/04/04 10:29:29;;;;;;;93.07;11.68;;;8.10;71.00;;;;;;5035727;28;20135;-58
2023/04/04 10:32:04;;;;;;;47.25;8.48;;;8.20;71.00;;;;;;5032249;28;20038;-58
2023/04/04 10:34:40;;;;;;;82.40;9.65;;;8.20;71.00;;;;;;5032408;28;20116;-58
2023/04/04 10:37:14;;;;;;;65.35;9.80;;;8.20;71.00;;;;;;5015858;28;20113;-57
2023/04/04 10:39:43;;;;;;;49.10;8.13;;;8.20;71.20;;;;;;5016112;28;20025;-57
2023/04/04 10:42:09;;;;;;;68.80;9.18;;;8.20;71.20;;;;;;5033351;28;20037;-57
2023/04/04 10:44:38;;;;;;;66.80;9.80;;;8.20;71.20;;;;;;5015388;28;20033;-57
2023/04/04 10:47:13;;;;;;;69.60;10.90;;;8.30;71.20;;;;;;5033228;28;20120;-58
2023/04/04 10:49:41;;;;;;;75.28;10.43;;;8.30;71.30;;;;;;5033079;28;20056;-58
2023/04/04 10:52:07;;;;;;;89.82;10.73;;;8.30;71.30;;;;;;5031388;28;20507;-58
2023/04/04 10:54:32;;;;;;;75.28;11.07;;;8.40;71.40;;;;;;5031568;28;20044;-58
2023/04/04 10:57:01;;;;;;;59.95;9.40;;;8.40;71.40;;;;;;5031707;28;20037;-56
2023/04/04 10:59:26;;;;;;;104.18;12.63;;;8.40;71.20;;;;;;5031111;28;20056;-58
2023/04/04 11:01:59;;;;;;;83.72;11.10;;;8.40;71.00;;;;;;5032987;28;20466;-57
2023/04/04 11:04:30;;;;;;;83.10;10.45;;;8.50;70.90;;;;;;5031060;28;20033;-56
2023/04/04 11:07:15;;;;;;;91.88;11.45;;;8.50;70.70;;;;;;5030653;28;20041;-56
2023/04/04 11:09:54;;;;;;;83.78;10.68;;;8.60;70.70;;;;;;5034613;28;20610;-58
2023/04/04 11:12:30;;;;;;;76.85;10.05;;;8.60;70.60;;;;;;5034875;28;20033;-57
2023/04/04 11:14:55;;;;;;;;;;;8.60;70.40;;;;;;5038367;28;20026;-58
2023/04/04 11:18:01;;;;;;;80.47;9.38;;;8.70;70.40;;;;;;5028278;28;19921;-58
2023/04/04 11:20:28;;;;;;;81.17;11.00;;;8.70;70.30;;;;;;4994953;28;20062;-57
2023/04/04 11:23:04;;;;;;;84.75;10.30;;;8.70;70.10;;;;;;5003483;28;20363;-58
2023/04/04 11:25:30;;;;;;;97.90;12.07;;;8.80;70.10;;;;;;5018508;28;20049;-57
2023/04/04 11:27:57;;;;;;;84.60;11.65;;;8.80;70.10;;;;;;5044004;28;20029;-57
2023/04/04 11:30:27;;;;;;;106.15;12.60;;;8.90;70.80;;;;;;5041465;28;20036;-58
2023/04/04 11:32:55;;;;;;;93.40;11.85;;;8.90;70.00;;;;;;5041893;28;20040;-57
2023/04/04 11:35:21;;;;;;;125.60;14.93;;;8.90;69.80;;;;;;5022125;28;20077;-57
2023/04/04 11:37:49;;;;;;;136.18;13.90;;;9.00;69.90;;;;;;5007245;28;20030;-57
2023/04/04 11:40:16;;;;;;;94.60;10.80;;;9.00;69.80;;;;;;5035900;28;20033;-57
2023/04/04 11:42:42;;;;;;;120.00;11.68;;;9.00;69.20;;;;;;5055951;28;20033;-57
2023/04/04 11:45:09;;;;;;;120.82;12.75;;;9.10;68.90;;;;;;5007255;28;20036;-58
2023/04/04 11:47:34;;;;;;;93.15;12.02;;;9.10;68.80;;;;;;5041868;28;20033;-57
2023/04/04 11:50:01;;;;;;;101.15;12.32;;;9.20;68.80;;;;;;5024414;28;20478;-57
2023/04/04 11:52:32;;;;;;;157.85;16.98;;;9.20;68.70;;;;;;5023895;28;20033;-57
2023/04/04 11:54:58;;;;;;;92.28;11.90;;;9.30;68.90;;;;;;5025612;28;20029;-57
2023/04/04 11:57:23;;;;;;;295.67;33.38;;;9.30;68.70;;;;;;5022401;28;20037;-57
2023/04/04 11:59:50;;;;;;;119.90;15.02;;;9.40;69.00;;;;;;5043454;28;20029;-58
2023/04/04 12:02:20;;;;;;;87.43;10.57;;;9.40;68.70;;;;;;5052013;28;20037;-57
2023/04/04 12:04:46;;;;;;;79.82;10.20;;;9.50;68.30;;;;;;5055425;28;20034;-57
2023/04/04 12:07:12;;;;;;;81.32;10.77;;;9.50;68.70;;;;;;5042872;28;20087;-57
2023/04/04 12:09:38;;;;;;;65.80;11.23;;;9.50;67.90;;;;;;5042508;28;20029;-58
2023/04/04 12:12:06;;;;;;;76.63;11.02;;;9.70;67.80;;;;;;5025904;28;20041;-57
2023/04/04 12:14:32;;;;;;;83.07;9.65;;;9.70;67.70;;;;;;5043184;28;20026;-57
2023/04/04 12:16:58;;;;;;;115.15;14.35;;;9.80;67.60;;;;;;5041724;28;20029;-57
2023/04/04 12:19:24;;;;;;;152.48;16.40;;;9.90;67.60;;;;;;5043909;28;20075;-58
2023/04/04 12:21:51;;;;;;;142.32;16.83;;;10.00;67.80;;;;;;5041498;28;20038;-58
2023/04/04 12:24:16;;;;;;;110.57;13.43;;;10.00;67.50;;;;;;5064964;28;20625;-57
2023/04/04 12:26:43;;;;;;;110.95;12.00;;;10.10;67.10;;;;;;5047951;28;20467;-58
2023/04/04 12:29:09;;;;;;;109.55;13.68;;;10.20;67.10;;;;;;5035674;28;20033;-57
2023/04/04 12:31:36;;;;;;;97.85;14.85;;;10.20;66.90;;;;;;5045420;28;20033;-56
2023/04/04 12:34:02;;;;;;;87.43;12.45;;;10.20;66.80;;;;;;5061787;28;20026;-58
2023/04/04 12:36:31;;;;;;;98.63;12.77;;;10.30;66.80;;;;;;5028989;28;20040;-57